Dundee, Texas
Current Conditions -  °F | °C
As of 2:15 PM on Saturday 20 Dec 2014 (Local Time) from KCWC Reporting Station
Overcast Overcast  
Wind Chill: 45°   Ceiling: 1900
Heat Index: 45°   Visibility: 10mi
Dew Point: 41°   Wind: 3mph
Humidity: 85%   Direction: 180°S
Pressure: 30.19"   Gusts: NA
Location:  33.6107°N, 98.6955°W
Report Text: KCWC 202015Z AUTO 18003KT 10SM SCT012 OVC019 07/05 A3019 RMK AO2 T00720048
Loading
Personal Weather Stations






























Interactive Weather Map New forecast layout! Learn more

10-Day Weather Forecast

Advertisements
Track Severe Weather on mobile